Time;durP1;ratioP1;P1;durP2;ratioP2;P2;SDS_P1;SDS_P2;PMS_P1;PMS_P2;Temp;Humidity;BMP_temperature;BMP_pressure;BME280_temperature;BME280_humidity;BME280_pressure;Samples;Min_cycle;Max_cycle;Signal;HPM_P1;HPM_P2
2022/07/10 00:03:13;;;;;;;2.63;2.43;;;22.40;31.60;;;;;;10438685;28;20233;-78
2022/07/10 00:08:17;;;;;;;2.77;2.57;;;22.30;31.70;;;;;;10435146;28;20312;-77
2022/07/10 00:13:22;;;;;;;4.00;3.63;;;22.30;31.90;;;;;;10435059;28;20225;-77
2022/07/10 00:18:25;;;;;;;2.73;2.53;;;22.20;33.10;;;;;;10436191;28;20232;-77
2022/07/10 00:23:28;;;;;;;2.90;2.70;;;22.10;32.50;;;;;;10433909;28;20229;-78
2022/07/10 00:28:33;;;;;;;2.53;2.30;;;22.00;32.70;;;;;;10436456;28;20262;-77
2022/07/10 00:33:37;;;;;;;2.17;2.00;;;22.00;33.20;;;;;;10430800;28;20290;-77
2022/07/10 00:38:40;;;;;;;2.60;2.40;;;21.90;32.70;;;;;;10431920;28;20239;-78
2022/07/10 00:43:55;;;;;;;2.83;2.63;;;21.70;33.10;;;;;;10428981;28;20229;-77
2022/07/10 00:48:59;;;;;;;3.00;2.80;;;21.70;34.40;;;;;;10426943;28;20239;-77
2022/07/10 00:54:02;;;;;;;2.43;2.33;;;21.60;33.70;;;;;;10419301;28;20227;-77
2022/07/10 00:59:07;;;;;;;2.90;2.70;;;21.60;33.80;;;;;;10434415;28;20222;-77
2022/07/10 01:04:10;;;;;;;2.50;2.30;;;21.40;34.50;;;;;;10433462;28;20387;-77
2022/07/10 01:09:13;;;;;;;3.30;3.10;;;21.30;34.10;;;;;;10427576;28;20221;-77
2022/07/10 01:14:18;;;;;;;3.77;2.90;;;21.20;34.30;;;;;;10432123;28;20217;-77
2022/07/10 01:19:21;;;;;;;3.00;2.80;;;21.10;35.30;;;;;;10429818;28;20240;-77
2022/07/10 01:24:26;;;;;;;2.50;2.30;;;21.00;34.90;;;;;;10423716;28;20236;-77
2022/07/10 01:29:30;;;;;;;2.67;2.47;;;21.00;35.40;;;;;;10436177;28;20221;-77
2022/07/10 01:34:33;;;;;;;4.13;2.73;;;21.00;35.30;;;;;;10428552;28;20226;-78
2022/07/10 01:39:38;;;;;;;2.60;2.40;;;21.00;35.10;;;;;;10433046;28;20233;-78
2022/07/10 01:44:41;;;;;;;2.73;2.53;;;21.00;35.50;;;;;;10435839;28;20225;-78
2022/07/10 01:49:44;;;;;;;2.70;2.50;;;20.90;34.70;;;;;;10438796;28;20903;-78
2022/07/10 01:54:49;;;;;;;2.50;2.30;;;20.80;34.70;;;;;;10432915;28;20225;-77
2022/07/10 01:59:52;;;;;;;3.07;2.77;;;20.70;35.40;;;;;;10433062;28;20224;-77
2022/07/10 02:04:56;;;;;;;3.03;2.83;;;20.60;35.10;;;;;;10425007;28;20231;-78
2022/07/10 02:10:00;;;;;;;3.17;2.87;;;20.50;35.30;;;;;;10431359;28;20232;-78
2022/07/10 02:15:04;;;;;;;3.00;2.80;;;20.40;36.00;;;;;;10433810;28;20239;-77
2022/07/10 02:20:10;;;;;;;2.43;2.33;;;20.30;35.60;;;;;;10429773;28;20737;-78
2022/07/10 02:25:15;;;;;;;5.70;3.30;;;20.30;35.50;;;;;;10423377;28;20221;-77
2022/07/10 02:30:19;;;;;;;3.50;2.70;;;20.30;36.50;;;;;;10428268;28;20236;-77
2022/07/10 02:35:22;;;;;;;3.40;3.20;;;20.30;35.80;;;;;;10429295;28;20229;-77
2022/07/10 02:40:27;;;;;;;3.40;3.20;;;20.30;36.10;;;;;;10434046;28;20939;-77
2022/07/10 02:45:30;;;;;;;3.17;2.80;;;20.20;36.70;;;;;;10438558;28;20239;-78
2022/07/10 02:50:33;;;;;;;3.17;2.90;;;20.10;36.10;;;;;;10446539;28;20682;-78
2022/07/10 02:55:38;;;;;;;3.17;2.87;;;20.10;36.10;;;;;;10442401;28;20221;-77
2022/07/10 03:00:41;;;;;;;3.60;3.37;;;20.00;36.50;;;;;;10434949;28;20252;-77
2022/07/10 03:05:44;;;;;;;3.07;2.87;;;20.00;36.50;;;;;;10436673;28;20240;-77
2022/07/10 03:10:49;;;;;;;3.80;3.50;;;19.90;36.40;;;;;;10440689;28;20225;-77
2022/07/10 03:15:55;;;;;;;3.40;3.20;;;19.80;36.70;;;;;;10430211;28;20277;-78
2022/07/10 03:20:58;;;;;;;3.57;3.27;;;19.70;37.40;;;;;;10436927;28;20307;-77
2022/07/10 03:26:03;;;;;;;4.00;3.60;;;19.50;36.30;;;;;;10434622;28;20660;-77
2022/07/10 03:31:06;;;;;;;3.60;3.30;;;19.40;38.00;;;;;;10434289;28;20225;-77
2022/07/10 03:36:09;;;;;;;3.70;3.40;;;19.30;37.40;;;;;;10437725;28;20249;-77
2022/07/10 03:41:14;;;;;;;3.73;3.50;;;19.20;37.40;;;;;;10430215;28;20235;-77
2022/07/10 03:46:17;;;;;;;4.23;3.87;;;19.00;38.30;;;;;;10436171;28;20229;-77
2022/07/10 03:51:21;;;;;;;4.30;3.90;;;18.90;38.00;;;;;;10442006;28;20223;-77
2022/07/10 04:01:46;;;;;;;3.83;3.53;;;18.70;38.80;;;;;;10442255;28;20706;-77
2022/07/10 04:06:49;;;;;;;4.53;4.07;;;18.70;38.60;;;;;;10438073;28;20233;-77
2022/07/10 04:11:54;;;;;;;3.50;3.30;;;18.60;38.70;;;;;;10435614;28;20235;-77
2022/07/10 04:16:57;;;;;;;4.57;4.17;;;18.50;39.30;;;;;;10436974;28;20225;-75
2022/07/10 04:22:00;;;;;;;3.90;3.43;;;18.50;38.90;;;;;;10430678;28;20225;-76
2022/07/10 04:27:06;;;;;;;4.20;3.90;;;18.50;38.80;;;;;;10438772;28;20229;-76
2022/07/10 04:32:10;;;;;;;3.83;3.53;;;18.50;39.60;;;;;;10431020;28;20237;-76
2022/07/10 04:37:13;;;;;;;4.10;3.77;;;18.60;38.90;;;;;;10438616;28;20771;-76
2022/07/10 04:42:18;;;;;;;4.73;3.50;;;18.60;39.00;;;;;;10434646;28;20220;-76
2022/07/10 04:47:21;;;;;;;3.83;3.53;;;18.60;39.80;;;;;;10437996;28;20225;-76
2022/07/10 04:52:24;;;;;;;4.20;3.90;;;18.60;39.00;;;;;;10439551;28;20225;-76
2022/07/10 04:57:29;;;;;;;4.40;4.03;;;18.60;38.90;;;;;;10426899;28;20221;-76
2022/07/10 05:02:32;;;;;;;4.60;4.20;;;18.60;39.80;;;;;;10434693;28;20228;-76
2022/07/10 05:07:35;;;;;;;4.73;4.40;;;18.60;39.40;;;;;;10430824;28;20693;-76
2022/07/10 05:12:40;;;;;;;4.37;4.07;;;18.60;39.60;;;;;;10434354;28;20224;-76
2022/07/10 05:17:43;;;;;;;4.93;3.73;;;18.50;40.10;;;;;;10433215;28;20593;-76
2022/07/10 05:22:47;;;;;;;4.37;4.03;;;18.50;39.70;;;;;;10431318;28;20235;-76
2022/07/10 05:27:51;;;;;;;3.80;3.60;;;18.40;39.80;;;;;;10429918;28;20232;-76
2022/07/10 05:32:54;;;;;;;4.20;3.90;;;18.40;40.90;;;;;;10433250;28;20228;-77
2022/07/10 05:37:58;;;;;;;4.20;3.90;;;18.40;40.10;;;;;;10431086;28;20698;-77
2022/07/10 05:43:03;;;;;;;5.00;4.07;;;18.50;40.50;;;;;;10432793;28;20233;-77
2022/07/10 05:48:06;;;;;;;3.67;3.37;;;18.50;41.20;;;;;;10433678;28;20220;-77
2022/07/10 05:53:10;;;;;;;4.10;3.80;;;18.50;40.60;;;;;;10436330;28;20235;-77
2022/07/10 05:58:14;;;;;;;4.13;3.73;;;18.60;40.80;;;;;;10429865;28;20595;-77
2022/07/10 06:03:17;;;;;;;4.40;4.10;;;18.60;41.50;;;;;;10428677;28;20602;-77
2022/07/10 06:08:20;;;;;;;4.20;3.77;;;18.60;41.40;;;;;;10437812;28;20758;-77
2022/07/10 06:13:25;;;;;;;4.10;3.80;;;18.60;41.10;;;;;;10426666;28;20225;-77
2022/07/10 06:18:28;;;;;;;3.70;3.40;;;18.70;42.00;;;;;;10423789;28;20232;-76
2022/07/10 06:23:31;;;;;;;3.53;3.20;;;18.80;41.60;;;;;;10435346;28;20220;-77
2022/07/10 06:28:37;;;;;;;3.07;2.87;;;18.90;41.70;;;;;;10431246;28;20774;-76
2022/07/10 06:33:40;;;;;;;3.70;2.93;;;19.00;41.80;;;;;;10433167;28;20695;-77
2022/07/10 06:38:43;;;;;;;3.00;2.70;;;19.10;41.10;;;;;;10428009;28;20228;-77
2022/07/10 06:43:48;;;;;;;2.80;2.60;;;19.20;41.20;;;;;;10435345;28;20233;-77
2022/07/10 06:48:51;;;;;;;2.70;2.50;;;19.30;41.30;;;;;;10421565;28;20323;-77
2022/07/10 06:53:56;;;;;;;2.20;2.10;;;19.30;40.60;;;;;;10428529;28;20595;-77
2022/07/10 06:59:01;;;;;;;2.80;2.20;;;19.40;40.60;;;;;;10425182;28;20237;-77
2022/07/10 07:04:04;;;;;;;2.30;2.00;;;19.40;40.30;;;;;;10429109;28;20213;-76
2022/07/10 07:09:08;;;;;;;2.80;1.87;;;19.50;39.70;;;;;;10432849;28;20228;-77
2022/07/10 07:14:12;;;;;;;2.63;1.80;;;19.50;39.10;;;;;;10430283;28;20214;-78
2022/07/10 07:19:18;;;;;;;1.97;1.70;;;19.60;38.30;;;;;;10431452;28;20989;-77
2022/07/10 07:24:21;;;;;;;3.27;1.47;;;19.60;38.00;;;;;;10437476;28;23318;-76
2022/07/10 07:29:26;;;;;;;2.33;1.33;;;19.60;37.50;;;;;;10437550;28;20729;-77
2022/07/10 07:34:30;;;;;;;3.63;1.90;;;19.70;36.90;;;;;;10432375;28;20248;-77
2022/07/10 07:39:34;;;;;;;2.37;1.57;;;19.80;37.60;;;;;;10432459;28;20641;-76
2022/07/10 07:44:38;;;;;;;1.90;1.77;;;19.80;37.20;;;;;;10444120;28;20855;-77
2022/07/10 07:49:41;;;;;;;3.87;1.60;;;19.90;36.80;;;;;;10432312;28;20707;-75
2022/07/10 07:54:45;;;;;;;2.37;1.30;;;19.90;36.40;;;;;;10424541;28;20228;-75
2022/07/10 07:59:49;;;;;;;1.60;1.17;;;19.90;36.40;;;;;;10427319;28;20225;-76
2022/07/10 08:04:52;;;;;;;1.70;1.60;;;19.90;36.40;;;;;;10431877;28;20232;-76
2022/07/10 08:09:56;;;;;;;1.43;1.30;;;20.00;36.50;;;;;;10432036;28;20237;-76
2022/07/10 08:15:01;;;;;;;2.90;1.50;;;20.10;35.90;;;;;;10427914;28;20231;-75
2022/07/10 08:20:05;;;;;;;1.30;1.20;;;20.30;35.00;;;;;;10431926;28;20221;-75
2022/07/10 08:25:09;;;;;;;3.33;1.27;;;20.40;35.20;;;;;;10435630;28;20226;-76
2022/07/10 08:30:14;;;;;;;1.33;1.23;;;20.50;34.30;;;;;;10435188;28;20849;-75
2022/07/10 08:35:17;;;;;;;1.63;1.20;;;20.60;33.80;;;;;;10432258;28;20786;-75
2022/07/10 08:40:23;;;;;;;2.43;1.50;;;20.60;33.90;;;;;;10432478;28;20573;-75
2022/07/10 08:45:31;;;;;;;4.17;2.07;;;20.70;33.60;;;;;;10430250;28;20236;-76
2022/07/10 08:50:38;;;;;;;3.23;1.37;;;20.70;33.40;;;;;;10434160;28;20239;-75
2022/07/10 08:55:42;;;;;;;2.23;1.50;;;20.80;33.10;;;;;;10439849;28;20256;-75
2022/07/10 09:00:46;;;;;;;5.37;3.33;;;20.90;33.30;;;;;;10432228;28;20240;-73
2022/07/10 09:05:51;;;;;;;3.90;2.37;;;21.00;33.00;;;;;;10427829;28;20240;-72
2022/07/10 09:11:13;;;;;;;4.97;1.80;;;21.10;33.70;;;;;;10425355;28;20911;-72
2022/07/10 09:16:25;;;;;;;1.73;1.40;;;21.20;33.00;;;;;;10426970;28;20212;-72
2022/07/10 09:21:34;;;;;;;1.40;1.20;;;21.20;30.40;;;;;;10430382;28;20233;-73
2022/07/10 09:26:38;;;;;;;3.00;1.70;;;21.30;32.10;;;;;;10430958;28;20236;-73
2022/07/10 09:31:52;;;;;;;2.97;1.80;;;21.40;31.70;;;;;;10428732;28;20240;-73
2022/07/10 09:36:56;;;;;;;2.43;1.40;;;21.40;30.70;;;;;;10427101;28;20227;-73
2022/07/10 09:41:59;;;;;;;2.60;1.63;;;21.40;31.80;;;;;;10428226;28;20229;-74
2022/07/10 09:47:04;;;;;;;1.37;1.27;;;21.40;31.90;;;;;;10425920;28;20237;-74
2022/07/10 09:52:08;;;;;;;2.37;1.57;;;21.50;31.80;;;;;;10430114;28;20248;-74
2022/07/10 09:57:16;;;;;;;2.00;1.10;;;21.50;31.50;;;;;;10426829;28;20240;-75
2022/07/10 10:02:22;;;;;;;1.37;1.03;;;21.50;29.90;;;;;;10435108;28;20220;-75
2022/07/10 10:07:26;;;;;;;1.80;1.20;;;21.60;29.90;;;;;;10431727;28;20229;-76
2022/07/10 10:12:36;;;;;;;2.47;1.40;;;21.70;29.90;;;;;;10421451;28;20224;-75
2022/07/10 10:17:48;;;;;;;2.53;1.20;;;21.80;29.80;;;;;;10427655;28;20315;-75
2022/07/10 10:22:55;;;;;;;1.30;1.07;;;21.90;28.60;;;;;;10433541;28;20719;-74
2022/07/10 10:27:59;;;;;;;1.13;0.97;;;21.90;29.90;;;;;;10431947;28;20252;-74
2022/07/10 10:33:04;;;;;;;2.33;1.10;;;21.90;28.80;;;;;;10434446;28;20236;-74
2022/07/10 10:38:07;;;;;;;1.47;1.10;;;21.90;28.30;;;;;;10423586;28;20226;-74
2022/07/10 10:43:22;;;;;;;1.40;1.30;;;22.00;28.80;;;;;;10433154;28;20230;-75
2022/07/10 10:48:27;;;;;;;1.80;1.03;;;22.00;28.20;;;;;;10428920;28;20233;-74
2022/07/10 10:53:40;;;;;;;0.90;0.90;;;22.20;28.60;;;;;;10435104;28;20225;-74
2022/07/10 10:58:44;;;;;;;3.07;1.67;;;22.40;28.80;;;;;;10434717;28;20586;-76
2022/07/10 11:04:15;;;;;;;4.93;1.30;;;22.50;27.60;;;;;;10436875;28;20229;-74
2022/07/10 11:09:26;;;;;;;3.30;1.10;;;22.50;25.80;;;;;;10434025;28;20220;-75
2022/07/10 11:14:30;;;;;;;1.83;1.00;;;22.60;26.30;;;;;;10430603;28;20221;-74
2022/07/10 11:19:36;;;;;;;1.77;0.83;;;22.60;27.10;;;;;;10427774;28;20235;-75
2022/07/10 11:24:48;;;;;;;0.80;0.80;;;22.60;26.50;;;;;;10439706;28;20231;-74
2022/07/10 11:29:58;;;;;;;2.03;1.00;;;22.60;26.10;;;;;;10437001;28;20681;-74
2022/07/10 11:35:06;;;;;;;1.33;0.97;;;22.50;25.70;;;;;;10438706;28;20236;-76
2022/07/10 11:40:11;;;;;;;1.80;1.10;;;22.40;26.70;;;;;;10429912;28;20225;-73
2022/07/10 11:45:24;;;;;;;2.00;1.10;;;22.40;26.40;;;;;;10431293;28;20249;-74
2022/07/10 11:50:36;;;;;;;1.10;0.90;;;22.40;26.00;;;;;;10434319;28;20603;-74
2022/07/10 11:55:41;;;;;;;0.80;0.80;;;22.50;25.40;;;;;;10429624;28;20246;-73
2022/07/10 12:00:44;;;;;;;1.50;1.00;;;22.60;27.00;;;;;;10432071;28;20237;-73
2022/07/10 12:05:50;;;;;;;1.03;0.93;;;22.60;26.30;;;;;;10431600;28;20618;-73
2022/07/10 12:10:53;;;;;;;0.80;0.80;;;22.70;26.20;;;;;;10430692;28;20929;-74
2022/07/10 12:15:57;;;;;;;11.77;1.90;;;22.90;27.30;;;;;;10427203;28;20232;-72
2022/07/10 12:21:02;;;;;;;1.43;1.00;;;23.10;26.30;;;;;;10431148;28;20925;-73
2022/07/10 12:26:08;;;;;;;1.10;0.90;;;23.20;25.80;;;;;;10430486;28;20227;-72
2022/07/10 12:31:21;;;;;;;1.73;0.80;;;23.30;26.30;;;;;;10435564;28;20232;-73
2022/07/10 12:36:27;;;;;;;1.13;0.90;;;23.40;22.90;;;;;;10429345;28;20225;-72
2022/07/10 12:41:30;;;;;;;1.70;0.90;;;23.50;25.10;;;;;;10428957;28;20233;-73
2022/07/10 12:46:33;;;;;;;1.90;0.90;;;23.60;25.80;;;;;;10431056;28;20239;-72
2022/07/10 12:51:47;;;;;;;26.10;3.00;;;23.60;25.50;;;;;;10435925;28;20292;-72
2022/07/10 12:57:11;;;;;;;2.07;0.93;;;23.70;23.30;;;;;;10428088;28;20228;-72
2022/07/10 13:02:19;;;;;;;0.97;0.90;;;23.80;25.20;;;;;;10424204;28;20852;-74
2022/07/10 13:07:32;;;;;;;1.30;1.00;;;23.80;23.50;;;;;;10430038;28;20308;-72
2022/07/10 13:12:36;;;;;;;1.47;0.83;;;23.80;23.30;;;;;;10428940;28;20241;-73
2022/07/10 13:17:44;;;;;;;1.20;0.80;;;23.80;23.60;;;;;;10424893;28;20229;-73
2022/07/10 13:22:49;;;;;;;2.87;1.00;;;23.80;22.80;;;;;;10429679;28;20734;-73
2022/07/10 13:27:52;;;;;;;1.80;0.90;;;23.70;23.50;;;;;;10424715;28;20255;-74
2022/07/10 13:32:55;;;;;;;1.13;0.80;;;23.60;24.00;;;;;;10430521;28;20225;-72
2022/07/10 13:38:02;;;;;;;0.80;0.80;;;23.60;23.50;;;;;;10429340;28;20553;-73
2022/07/10 13:43:06;;;;;;;1.07;0.90;;;23.60;23.10;;;;;;10423303;28;20311;-72
2022/07/10 13:48:10;;;;;;;1.17;0.80;;;23.50;23.30;;;;;;10428828;28;20240;-74
2022/07/10 13:53:14;;;;;;;3.23;1.10;;;23.40;23.80;;;;;;10425081;28;20237;-73
2022/07/10 13:58:19;;;;;;;1.77;1.00;;;23.40;22.80;;;;;;10429735;28;20871;-72
2022/07/10 14:03:22;;;;;;;0.70;0.70;;;23.40;23.40;;;;;;10432124;28;20685;-72
2022/07/10 14:08:27;;;;;;;1.30;0.90;;;23.30;23.30;;;;;;10426492;28;20225;-73
2022/07/10 14:13:30;;;;;;;1.63;0.90;;;23.40;22.90;;;;;;10427958;28;20243;-73
2022/07/10 14:18:38;;;;;;;1.27;0.80;;;23.40;23.30;;;;;;10434831;28;20283;-72
2022/07/10 14:23:43;;;;;;;2.17;0.80;;;23.30;22.90;;;;;;10428250;28;20300;-72
2022/07/10 14:28:48;;;;;;;1.10;0.90;;;23.30;22.70;;;;;;10425855;28;20240;-72
2022/07/10 14:33:51;;;;;;;1.47;0.80;;;23.30;23.10;;;;;;10433643;28;20225;-72
2022/07/10 14:38:56;;;;;;;1.67;0.90;;;23.30;23.00;;;;;;10431782;28;20231;-72
2022/07/10 14:43:59;;;;;;;0.80;0.80;;;23.30;22.80;;;;;;10439016;28;20228;-72
2022/07/10 14:49:03;;;;;;;1.43;0.73;;;23.40;23.10;;;;;;10431514;28;20872;-72
2022/07/10 14:54:07;;;;;;;1.10;0.93;;;23.50;23.00;;;;;;10431911;28;20232;-72
2022/07/10 14:59:10;;;;;;;0.93;0.90;;;23.50;22.30;;;;;;10438577;28;20220;-71
2022/07/10 15:04:17;;;;;;;1.13;0.90;;;23.50;22.70;;;;;;10442408;28;20220;-72
2022/07/10 15:09:22;;;;;;;1.30;0.80;;;23.50;22.30;;;;;;10436905;28;20864;-72
2022/07/10 15:14:27;;;;;;;2.17;0.80;;;23.50;22.30;;;;;;10436559;28;20717;-73
2022/07/10 15:19:30;;;;;;;1.53;0.70;;;23.50;22.20;;;;;;10435259;28;20223;-72
2022/07/10 15:24:35;;;;;;;1.40;0.77;;;23.50;22.20;;;;;;10433243;28;20224;-72
2022/07/10 15:29:38;;;;;;;1.33;0.87;;;23.60;21.80;;;;;;10439276;28;20618;-72
2022/07/10 15:34:41;;;;;;;1.10;0.80;;;23.60;22.00;;;;;;10435868;28;20228;-73
2022/07/10 15:39:46;;;;;;;1.60;0.90;;;23.60;22.10;;;;;;10432935;28;20225;-72
2022/07/10 15:44:49;;;;;;;0.80;0.80;;;23.60;21.40;;;;;;10434119;28;20220;-72
2022/07/10 15:49:52;;;;;;;2.20;1.10;;;23.60;21.90;;;;;;10432300;28;20247;-74
2022/07/10 15:54:57;;;;;;;1.63;0.90;;;23.60;21.70;;;;;;10435531;28;20842;-73
2022/07/10 16:00:00;;;;;;;1.40;0.83;;;23.60;21.60;;;;;;10432411;28;20777;-73
2022/07/10 16:05:06;;;;;;;1.07;0.80;;;23.70;21.90;;;;;;10420519;28;20597;-74
2022/07/10 16:10:11;;;;;;;0.90;0.83;;;23.70;21.70;;;;;;10433862;28;20225;-73
2022/07/10 16:15:14;;;;;;;1.33;0.80;;;23.60;21.50;;;;;;10433573;28;20675;-73
2022/07/10 16:20:19;;;;;;;1.70;0.80;;;23.60;21.70;;;;;;10428226;28;20303;-73
2022/07/10 16:30:44;;;;;;;1.43;0.70;;;23.50;21.40;;;;;;10428046;28;20351;-74
2022/07/10 16:35:48;;;;;;;0.60;0.60;;;23.50;21.80;;;;;;10432074;28;20795;-73
2022/07/10 16:40:54;;;;;;;1.37;0.90;;;23.50;21.60;;;;;;10434681;28;20229;-73
2022/07/10 16:45:57;;;;;;;1.27;0.70;;;23.50;21.20;;;;;;10434470;28;20741;-74
2022/07/10 16:51:01;;;;;;;0.70;0.70;;;23.50;21.50;;;;;;10426472;28;20221;-73
2022/07/10 16:56:06;;;;;;;1.17;0.70;;;23.50;21.30;;;;;;10427794;28;20225;-72
2022/07/10 17:01:10;;;;;;;1.33;0.70;;;23.50;21.20;;;;;;10432617;28;20248;-72
2022/07/10 17:06:13;;;;;;;0.57;0.57;;;23.50;21.70;;;;;;10431601;28;20221;-72
2022/07/10 17:11:19;;;;;;;0.73;0.60;;;23.40;21.40;;;;;;10427735;28;20225;-72
2022/07/10 17:16:22;;;;;;;0.60;0.60;;;23.40;21.20;;;;;;10423664;28;20240;-72
2022/07/10 17:21:26;;;;;;;0.93;0.77;;;23.40;21.30;;;;;;10429817;28;20294;-72
2022/07/10 17:26:51;;;;;;;1.80;0.70;;;23.40;21.20;;;;;;10424412;28;20225;-72
2022/07/10 17:31:54;;;;;;;0.57;0.57;;;23.30;20.80;;;;;;10424900;28;20228;-72
2022/07/10 17:36:57;;;;;;;0.70;0.70;;;23.10;21.20;;;;;;10431130;28;20237;-72
2022/07/10 17:42:02;;;;;;;0.60;0.60;;;23.00;21.30;;;;;;10429491;28;20717;-72
2022/07/10 17:47:06;;;;;;;0.60;0.60;;;23.00;21.40;;;;;;10424711;28;20320;-72
2022/07/10 17:52:09;;;;;;;0.70;0.60;;;23.10;21.70;;;;;;10427537;28;20232;-72
2022/07/10 17:57:14;;;;;;;0.80;0.60;;;23.20;21.60;;;;;;10423296;28;20227;-72
2022/07/10 18:02:19;;;;;;;2.30;0.73;;;23.20;21.30;;;;;;10427715;28;20711;-72
2022/07/10 18:07:22;;;;;;;0.67;0.67;;;23.30;21.30;;;;;;10422608;28;20228;-72
2022/07/10 18:12:26;;;;;;;0.73;0.70;;;23.30;21.40;;;;;;10429501;28;20229;-72
2022/07/10 18:17:30;;;;;;;0.60;0.60;;;23.30;21.20;;;;;;10425829;28;20229;-72
2022/07/10 18:22:33;;;;;;;0.90;0.70;;;23.30;21.40;;;;;;10427690;28;20227;-72
2022/07/10 18:27:37;;;;;;;0.77;0.60;;;23.30;21.50;;;;;;10426779;28;20235;-72
2022/07/10 18:38:01;;;;;;;0.70;0.70;;;23.30;21.80;;;;;;10430286;28;20235;-72
2022/07/10 18:43:06;;;;;;;1.10;0.60;;;23.20;21.60;;;;;;10426186;28;20220;-72
2022/07/10 18:48:09;;;;;;;1.07;0.60;;;23.20;21.70;;;;;;10424513;28;20374;-72
2022/07/10 18:53:13;;;;;;;1.40;0.70;;;23.10;21.70;;;;;;10426039;28;20223;-72
2022/07/10 18:58:17;;;;;;;0.73;0.70;;;23.10;21.80;;;;;;10429135;28;20778;-72
2022/07/10 19:03:20;;;;;;;0.57;0.50;;;22.90;21.80;;;;;;10427306;28;20229;-72
2022/07/10 19:08:24;;;;;;;1.03;0.70;;;22.90;22.00;;;;;;10428254;28;20271;-72
2022/07/10 19:13:29;;;;;;;0.60;0.60;;;22.80;21.90;;;;;;10427955;28;20300;-72
2022/07/10 19:18:32;;;;;;;0.70;0.60;;;22.70;22.10;;;;;;10431239;28;20342;-72
2022/07/10 19:23:35;;;;;;;0.90;0.63;;;22.60;22.20;;;;;;10432696;28;20224;-72
2022/07/10 19:28:40;;;;;;;1.17;0.70;;;22.60;22.40;;;;;;10432347;28;21000;-73
2022/07/10 19:33:44;;;;;;;1.37;0.57;;;22.40;22.40;;;;;;10432213;28;20229;-73
2022/07/10 19:38:48;;;;;;;0.60;0.60;;;22.30;22.40;;;;;;10431634;28;20347;-73
2022/07/10 19:43:53;;;;;;;1.60;0.77;;;22.20;22.60;;;;;;10430715;28;20233;-72
2022/07/10 19:48:56;;;;;;;0.97;0.80;;;22.20;22.80;;;;;;10433991;28;20958;-72
2022/07/10 19:53:59;;;;;;;0.73;0.70;;;22.00;22.80;;;;;;10431586;28;20225;-72
2022/07/10 19:59:04;;;;;;;0.97;0.70;;;22.00;23.00;;;;;;10432009;28;20232;-72
2022/07/10 20:04:07;;;;;;;1.57;0.67;;;21.80;23.10;;;;;;10433618;28;20248;-72
2022/07/10 20:09:10;;;;;;;1.03;0.70;;;21.80;23.20;;;;;;10431473;28;20228;-71
2022/07/10 20:14:16;;;;;;;2.50;0.70;;;21.70;23.30;;;;;;10427737;28;20272;-72
2022/07/10 20:19:22;;;;;;;1.90;0.80;;;21.60;23.40;;;;;;10429223;28;20232;-72
2022/07/10 20:24:27;;;;;;;0.93;0.90;;;21.40;23.40;;;;;;10431188;28;20803;-73
2022/07/10 20:29:32;;;;;;;1.03;0.80;;;21.10;23.50;;;;;;10432298;28;20727;-72
2022/07/10 20:34:35;;;;;;;0.77;0.77;;;20.80;24.00;;;;;;10433533;28;20225;-72
2022/07/10 20:39:38;;;;;;;1.80;0.80;;;20.60;24.00;;;;;;10434787;28;20225;-72
2022/07/10 20:44:42;;;;;;;1.27;0.80;;;20.30;24.80;;;;;;10434516;28;20224;-72
2022/07/10 20:49:46;;;;;;;1.07;0.80;;;20.00;24.80;;;;;;10434897;28;20221;-72
2022/07/10 20:54:50;;;;;;;0.93;0.67;;;19.90;24.80;;;;;;10431149;28;20240;-72
2022/07/10 20:59:55;;;;;;;0.60;0.60;;;19.60;25.00;;;;;;10433177;28;20233;-73
2022/07/10 21:04:58;;;;;;;0.63;0.60;;;19.50;25.00;;;;;;10431706;28;20224;-73
2022/07/10 21:10:01;;;;;;;1.00;0.80;;;19.40;24.90;;;;;;10428290;28;20221;-72
2022/07/10 21:15:08;;;;;;;0.80;0.80;;;19.40;24.90;;;;;;10434889;28;20224;-72
2022/07/10 21:20:12;;;;;;;0.73;0.60;;;19.40;25.90;;;;;;10428436;28;20239;-73
2022/07/10 21:25:16;;;;;;;1.00;0.70;;;19.30;25.30;;;;;;10429632;28;20320;-73
2022/07/10 21:30:22;;;;;;;0.70;0.70;;;19.20;25.50;;;;;;10426205;28;20235;-73
2022/07/10 21:35:25;;;;;;;0.80;0.67;;;19.00;25.90;;;;;;10431251;28;20845;-72
2022/07/10 21:40:28;;;;;;;0.60;0.60;;;18.90;25.70;;;;;;10433107;28;20244;-72
2022/07/10 21:45:33;;;;;;;1.80;0.90;;;18.70;25.70;;;;;;10424361;28;21231;-72
2022/07/10 21:50:37;;;;;;;0.80;0.80;;;18.60;26.30;;;;;;10434807;28;20933;-72
2022/07/10 21:55:40;;;;;;;1.07;0.97;;;18.40;26.20;;;;;;10427651;28;20606;-72
2022/07/10 22:00:45;;;;;;;1.10;1.10;;;18.30;26.30;;;;;;10434800;28;20744;-72
2022/07/10 22:05:48;;;;;;;0.90;0.90;;;18.20;26.90;;;;;;10433544;28;20233;-72
2022/07/10 22:10:52;;;;;;;1.00;0.83;;;18.00;26.50;;;;;;10431368;28;20229;-72
2022/07/10 22:15:56;;;;;;;1.10;1.00;;;17.90;26.60;;;;;;10432206;28;20217;-72
2022/07/10 22:20:59;;;;;;;0.80;0.70;;;17.80;27.00;;;;;;10424255;28;20733;-72
2022/07/10 22:26:04;;;;;;;1.10;0.83;;;17.70;26.80;;;;;;10434151;28;20228;-72
2022/07/10 22:31:18;;;;;;;1.23;1.03;;;17.50;27.00;;;;;;10430718;28;20233;-73
2022/07/10 22:36:22;;;;;;;1.47;1.00;;;17.40;27.40;;;;;;10429372;28;20923;-72
2022/07/10 22:41:25;;;;;;;1.93;0.80;;;17.30;27.30;;;;;;10431661;28;20224;-72
2022/07/10 22:46:30;;;;;;;1.00;1.00;;;17.20;27.30;;;;;;10429133;28;20232;-72
2022/07/10 22:51:33;;;;;;;0.77;0.77;;;17.10;27.80;;;;;;10433923;28;20319;-73
2022/07/10 22:56:36;;;;;;;1.30;1.10;;;16.90;27.40;;;;;;10436306;28;20247;-72
2022/07/10 23:01:41;;;;;;;0.80;0.80;;;16.80;27.60;;;;;;10437531;28;20227;-72
2022/07/10 23:06:51;;;;;;;1.07;0.90;;;16.80;28.20;;;;;;10439174;28;20232;-72
2022/07/10 23:11:54;;;;;;;1.20;1.10;;;16.80;27.90;;;;;;10436362;28;20233;-72
2022/07/10 23:16:58;;;;;;;1.77;0.90;;;16.70;28.00;;;;;;10441141;28;20225;-72
2022/07/10 23:22:01;;;;;;;2.73;1.63;;;16.80;28.50;;;;;;10438416;28;20319;-71
2022/07/10 23:27:06;;;;;;;2.20;1.10;;;16.80;28.20;;;;;;10437781;28;20240;-72
2022/07/10 23:32:10;;;;;;;1.23;1.07;;;16.80;28.10;;;;;;10434971;28;20239;-72
2022/07/10 23:37:14;;;;;;;0.90;0.90;;;16.80;28.50;;;;;;10436557;28;20599;-72
2022/07/10 23:42:17;;;;;;;1.43;0.90;;;16.70;28.10;;;;;;10438638;28;20233;-73
2022/07/10 23:47:22;;;;;;;1.00;0.90;;;16.70;28.40;;;;;;10434595;28;20235;-72
2022/07/10 23:52:25;;;;;;;0.90;0.90;;;16.60;28.70;;;;;;10439148;28;20240;-72
2022/07/10 23:57:28;;;;;;;1.30;1.20;;;16.50;28.50;;;;;;10432821;28;20638;-73
